createdAt,value
2018-04-27T00:02:02.831Z,6.70
2018-04-27T00:04:31.375Z,6.70
2018-04-27T00:06:59.554Z,6.80
2018-04-27T00:09:27.795Z,6.80
2018-04-27T00:11:56.773Z,6.70
2018-04-27T00:14:24.996Z,6.30
2018-04-27T00:16:53.499Z,6.40
2018-04-27T00:19:22.539Z,6.60
2018-04-27T00:21:50.785Z,6.60
2018-04-27T00:24:19.055Z,6.70
2018-04-27T00:26:47.318Z,6.60
2018-04-27T00:29:15.500Z,6.40
2018-04-27T00:31:44.479Z,6.30
2018-04-27T00:34:13.447Z,6.40
2018-04-27T00:36:41.661Z,6.40
2018-04-27T00:39:10.633Z,6.60
2018-04-27T00:41:38.850Z,6.50
2018-04-27T00:44:07.228Z,6.60
2018-04-27T00:46:35.419Z,6.60
2018-04-27T00:49:03.667Z,6.60
2018-04-27T00:51:31.931Z,6.60
2018-04-27T00:54:00.891Z,6.30
2018-04-27T00:56:29.152Z,6.30
2018-04-27T00:58:57.403Z,6.20
2018-04-27T01:01:26.276Z,6.30
2018-04-27T01:03:54.483Z,6.20
2018-04-27T01:06:22.852Z,6.00
2018-04-27T01:08:51.030Z,6.20
2018-04-27T01:11:19.226Z,6.40
2018-04-27T01:13:47.479Z,6.40
2018-04-27T01:16:15.663Z,6.20
2018-04-27T01:18:43.871Z,6.10
2018-04-27T01:21:12.207Z,6.20
2018-04-27T01:23:40.451Z,6.10
2018-04-27T01:26:09.407Z,6.30
2018-04-27T01:28:37.663Z,6.30
2018-04-27T01:31:05.865Z,6.20
2018-04-27T01:33:34.110Z,6.20
2018-04-27T01:36:02.500Z,6.20
2018-04-27T01:38:30.718Z,6.20
2018-04-27T01:40:59.736Z,6.10
2018-04-27T01:43:27.975Z,6.10
2018-04-27T01:45:56.936Z,6.00
2018-04-27T01:48:25.186Z,6.00
2018-04-27T01:50:53.451Z,6.00
2018-04-27T01:53:21.647Z,6.10
2018-04-27T01:55:49.834Z,5.90
2018-04-27T01:58:18.042Z,5.70
2018-04-27T02:00:46.233Z,5.60
2018-04-27T02:03:15.186Z,5.70
2018-04-27T02:05:43.391Z,5.60
2018-04-27T02:08:12.508Z,5.70
2018-04-27T02:10:40.686Z,5.70
2018-04-27T02:13:08.915Z,5.50
2018-04-27T02:15:37.187Z,5.40
2018-04-27T02:18:05.392Z,5.40
2018-04-27T02:20:34.421Z,5.30
2018-04-27T02:23:02.683Z,5.30
2018-04-27T02:25:30.879Z,5.50
2018-04-27T02:28:00.044Z,5.40
2018-04-27T02:30:28.243Z,5.30
2018-04-27T02:32:56.521Z,5.20
2018-04-27T02:35:24.742Z,5.30
2018-04-27T02:37:52.999Z,5.00
2018-04-27T02:40:21.292Z,5.10
2018-04-27T02:42:49.779Z,5.10
2018-04-27T02:45:17.987Z,5.20
2018-04-27T02:47:46.167Z,5.20
2018-04-27T02:50:14.471Z,5.20
2018-04-27T02:52:42.702Z,5.30
2018-04-27T02:55:10.908Z,5.40
2018-04-27T02:57:39.169Z,5.40
2018-04-27T03:00:07.366Z,5.30
2018-04-27T03:02:35.551Z,5.30
2018-04-27T03:05:03.886Z,5.40
2018-04-27T03:07:32.088Z,5.40
2018-04-27T03:10:00.283Z,5.40
2018-04-27T03:12:28.819Z,5.30
2018-04-27T03:14:57.127Z,5.30
2018-04-27T03:17:25.295Z,5.30
2018-04-27T03:19:53.571Z,5.10
2018-04-27T03:22:21.819Z,5.00
2018-04-27T03:24:50.035Z,5.00
2018-04-27T03:27:18.298Z,5.00
2018-04-27T03:29:46.485Z,4.90
2018-04-27T03:32:14.675Z,4.90
2018-04-27T03:34:42.900Z,5.00
2018-04-27T03:37:11.077Z,4.90
2018-04-27T03:39:39.307Z,5.10
2018-04-27T03:42:07.619Z,5.20
2018-04-27T03:44:35.852Z,5.10
2018-04-27T03:47:04.077Z,5.00
2018-04-27T03:49:32.323Z,5.10
2018-04-27T03:52:00.533Z,5.10
2018-04-27T03:54:28.746Z,5.00
2018-04-27T03:56:57.011Z,4.80
2018-04-27T03:59:36.995Z,4.70
2018-04-27T04:02:17.067Z,4.50
2018-04-27T04:04:57.732Z,4.60
2018-04-27T04:07:26.725Z,4.70
2018-04-27T04:09:55.678Z,4.80
2018-04-27T04:12:23.937Z,4.80
2018-04-27T04:14:52.408Z,4.80
2018-04-27T04:17:20.651Z,4.80
2018-04-27T04:19:49.604Z,4.90
2018-04-27T04:22:17.863Z,4.90
2018-04-27T04:24:46.276Z,4.80
2018-04-27T04:27:14.469Z,4.70
2018-04-27T04:29:43.471Z,4.70
2018-04-27T04:32:11.667Z,4.70
2018-04-27T04:34:39.872Z,4.70
2018-04-27T04:37:08.156Z,4.80
2018-04-27T04:39:36.889Z,4.90
2018-04-27T04:42:06.069Z,5.10
2018-04-27T04:44:34.251Z,5.10
2018-04-27T04:47:03.243Z,4.90
2018-04-27T04:49:32.219Z,4.80
2018-04-27T04:52:00.444Z,4.80
2018-04-27T04:54:28.631Z,4.90
2018-04-27T04:56:56.831Z,4.90
2018-04-27T04:59:25.075Z,5.10
2018-04-27T05:01:53.262Z,5.30
2018-04-27T05:04:21.959Z,5.50
2018-04-27T05:06:50.239Z,5.40
2018-04-27T05:09:18.577Z,5.30
2018-04-27T05:11:46.775Z,5.30
2018-04-27T05:14:15.093Z,5.30
2018-04-27T05:16:44.050Z,5.30
2018-04-27T05:19:12.277Z,5.20
2018-04-27T05:21:41.240Z,5.50
2018-04-27T05:24:09.454Z,5.50
2018-04-27T05:29:06.426Z,5.40
2018-04-27T05:31:34.611Z,5.70
2018-04-27T05:34:02.807Z,6.00
2018-04-27T05:36:31.067Z,6.00
2018-04-27T05:38:59.303Z,6.00
2018-04-27T05:41:28.324Z,6.20
2018-04-27T05:43:56.619Z,6.10
2018-04-27T05:46:24.811Z,6.40
2018-04-27T05:48:53.026Z,6.50
2018-04-27T05:51:38.515Z,6.50
2018-04-27T05:54:06.713Z,6.40
2018-04-27T05:56:34.921Z,6.50
2018-04-27T05:59:04.455Z,6.80
2018-04-27T06:01:33.456Z,7.20
2018-04-27T06:04:12.078Z,6.90
2018-04-27T06:06:40.330Z,6.90
2018-04-27T06:09:08.612Z,7.00
2018-04-27T06:11:36.827Z,7.10
2018-04-27T06:14:05.025Z,7.10
2018-04-27T06:16:33.241Z,7.10
2018-04-27T06:19:01.510Z,7.30
2018-04-27T06:21:30.482Z,7.50
2018-04-27T06:23:58.675Z,7.50
2018-04-27T06:26:27.719Z,7.60
2018-04-27T06:28:55.922Z,7.60
2018-04-27T06:31:25.491Z,7.80
2018-04-27T06:33:53.807Z,8.00
2018-04-27T06:36:22.011Z,7.80
2018-04-27T06:38:51.012Z,8.00
2018-04-27T06:41:20.100Z,8.30
2018-04-27T06:43:49.059Z,8.60
2018-04-27T06:46:17.515Z,8.60
2018-04-27T06:48:45.799Z,8.80
2018-04-27T06:51:13.991Z,8.70
2018-04-27T06:53:42.181Z,9.00
2018-04-27T06:56:10.462Z,9.30
2018-04-27T06:58:38.739Z,9.60
2018-04-27T07:01:06.962Z,9.30
2018-04-27T07:03:35.228Z,9.50
2018-04-27T07:06:03.409Z,9.80
2018-04-27T07:08:31.595Z,10.20
2018-04-27T07:10:59.898Z,9.90
2018-04-27T07:13:28.101Z,10.30
2018-04-27T07:15:57.057Z,10.80
2018-04-27T07:18:25.283Z,10.80
2018-04-27T07:20:53.531Z,11.40
2018-04-27T07:23:21.775Z,11.40
2018-04-27T07:25:50.012Z,11.90
2018-04-27T07:28:18.976Z,12.80
2018-04-27T07:30:47.189Z,12.80
2018-04-27T07:33:16.204Z,14.40
2018-04-27T07:35:44.464Z,14.40
2018-04-27T07:38:12.655Z,14.90
2018-04-27T07:40:40.931Z,15.20
2018-04-27T07:43:09.873Z,16.30
2018-04-27T07:45:38.043Z,16.30
2018-04-27T07:48:07.102Z,17.60
2018-04-27T07:50:35.294Z,17.60
2018-04-27T07:53:04.737Z,15.50
2018-04-27T07:55:33.054Z,15.30
2018-04-27T07:58:01.251Z,17.00
2018-04-27T08:00:30.895Z,18.90
2018-04-27T08:02:59.118Z,18.80
2018-04-27T08:05:27.369Z,17.90
2018-04-27T08:07:55.578Z,18.30
2018-04-27T08:10:23.813Z,19.40
2018-04-27T08:12:51.991Z,20.20
2018-04-27T08:15:20.187Z,20.20
2018-04-27T08:17:48.415Z,18.70
2018-04-27T08:20:18.271Z,18.50
2018-04-27T08:22:46.467Z,18.50
2018-04-27T08:25:14.683Z,20.20
2018-04-27T08:27:42.969Z,19.50
2018-04-27T08:30:11.244Z,20.00
2018-04-27T08:32:39.483Z,19.30
2018-04-27T08:35:07.671Z,20.10
2018-04-27T08:37:36.652Z,18.20
2018-04-27T08:40:05.028Z,18.10
2018-04-27T08:42:33.228Z,19.30
2018-04-27T08:45:02.898Z,19.20
2018-04-27T08:47:31.277Z,19.10
2018-04-27T08:49:59.562Z,17.10
2018-04-27T08:52:27.759Z,17.90
2018-04-27T08:54:58.282Z,18.70
2018-04-27T08:57:26.475Z,18.70
2018-04-27T08:59:54.667Z,18.30
2018-04-27T09:02:23.671Z,16.70
2018-04-27T09:04:51.872Z,17.20
2018-04-27T09:07:20.075Z,17.00
2018-04-27T09:09:49.103Z,16.10
2018-04-27T09:12:17.358Z,16.10
2018-04-27T09:14:46.331Z,16.90
2018-04-27T09:17:14.586Z,16.90
2018-04-27T09:19:42.792Z,16.90
2018-04-27T09:22:11.977Z,16.10
2018-04-27T09:24:40.264Z,16.10
2018-04-27T09:27:09.250Z,15.90
2018-04-27T09:29:37.451Z,15.80
2018-04-27T09:32:06.475Z,15.40
2018-04-27T09:34:34.674Z,15.40
2018-04-27T09:37:02.877Z,15.90
2018-04-27T09:39:31.868Z,15.40
2018-04-27T09:42:00.050Z,15.40
2018-04-27T09:44:29.027Z,15.80
2018-04-27T09:46:58.463Z,15.70
2018-04-27T09:49:26.650Z,15.60
2018-04-27T09:51:54.853Z,16.00
2018-04-27T09:54:23.135Z,15.70
2018-04-27T09:56:51.328Z,16.20
2018-04-27T09:59:19.535Z,16.30
2018-04-27T10:01:50.943Z,16.10
2018-04-27T10:04:19.127Z,16.10
2018-04-27T10:06:47.323Z,16.00
2018-04-27T10:09:16.320Z,16.00
2018-04-27T10:11:44.519Z,16.00
2018-04-27T10:14:12.799Z,16.00
2018-04-27T10:16:41.029Z,15.70
2018-04-27T10:19:09.231Z,16.00
2018-04-27T10:21:37.472Z,15.80
2018-04-27T10:24:05.699Z,15.90
2018-04-27T10:26:33.892Z,15.80
2018-04-27T10:29:02.121Z,15.70
2018-04-27T10:31:31.093Z,16.20
2018-04-27T10:33:59.290Z,16.20
2018-04-27T10:36:28.393Z,16.00
2018-04-27T10:38:56.606Z,15.90
2018-04-27T10:41:24.792Z,16.20
2018-04-27T10:43:53.012Z,16.10
2018-04-27T10:46:21.287Z,15.90
2018-04-27T10:48:49.512Z,16.10
2018-04-27T10:51:17.702Z,16.30
2018-04-27T10:53:45.903Z,16.70
2018-04-27T10:56:14.876Z,16.10
2018-04-27T10:58:43.069Z,16.10
2018-04-27T11:01:12.058Z,16.90
2018-04-27T11:03:40.374Z,16.80
2018-04-27T11:06:08.575Z,17.00
2018-04-27T11:08:36.842Z,16.90
2018-04-27T11:11:05.110Z,16.80
2018-04-27T11:13:33.221Z,16.90
2018-04-27T11:16:01.561Z,16.90
2018-04-27T11:18:29.871Z,17.00
2018-04-27T11:20:58.064Z,17.20
2018-04-27T11:23:26.398Z,17.50
2018-04-27T11:25:54.603Z,17.20
2018-04-27T11:28:22.787Z,16.90
2018-04-27T11:30:51.795Z,16.80
2018-04-27T11:33:20.867Z,17.20
2018-04-27T11:35:49.060Z,17.20
2018-04-27T11:38:18.024Z,16.80
2018-04-27T11:40:46.579Z,16.80
2018-04-27T11:43:14.837Z,17.20
2018-04-27T11:45:43.036Z,17.30
2018-04-27T11:48:12.170Z,17.50
2018-04-27T11:50:41.423Z,17.20
2018-04-27T11:53:12.229Z,17.50
2018-04-27T11:55:40.495Z,17.50
2018-04-27T11:58:09.456Z,17.50
2018-04-27T12:00:37.664Z,17.50
2018-04-27T12:03:07.584Z,18.70
2018-04-27T12:05:36.052Z,18.70
2018-04-27T12:08:05.153Z,19.20
2018-04-27T12:10:33.525Z,19.20
2018-04-27T12:13:01.949Z,19.40
2018-04-27T12:15:30.188Z,19.00
2018-04-27T12:17:59.187Z,19.30
2018-04-27T12:20:28.138Z,18.70
2018-04-27T12:22:56.439Z,18.70
2018-04-27T12:25:25.395Z,19.10
2018-04-27T12:27:53.616Z,19.10
2018-04-27T12:30:22.839Z,19.50
2018-04-27T12:32:51.042Z,19.50
2018-04-27T12:37:47.047Z,19.30
2018-04-27T12:40:15.343Z,19.00
2018-04-27T12:42:43.580Z,19.00
2018-04-27T12:45:12.562Z,19.20
2018-04-27T12:47:40.750Z,19.20
2018-04-27T12:50:09.983Z,19.10
2018-04-27T12:52:38.204Z,19.10
2018-04-27T12:55:06.376Z,19.20
2018-04-27T12:57:34.587Z,19.20
2018-04-27T13:00:02.881Z,19.60
2018-04-27T13:02:31.071Z,19.00
2018-04-27T13:04:59.268Z,19.50
2018-04-27T13:07:27.775Z,20.80
2018-04-27T13:09:55.947Z,21.00
2018-04-27T13:12:24.903Z,21.70
2018-04-27T13:14:53.180Z,21.70
2018-04-27T13:17:21.755Z,23.40
2018-04-27T13:19:50.675Z,24.20
2018-04-27T13:22:18.956Z,24.20
2018-04-27T13:24:47.247Z,25.20
2018-04-27T13:27:16.211Z,22.60
2018-04-27T13:29:45.226Z,24.90
2018-04-27T13:32:13.427Z,24.90
2018-04-27T13:34:41.625Z,24.60
2018-04-27T13:37:09.964Z,26.30
2018-04-27T13:39:38.932Z,25.70
2018-04-27T13:42:07.182Z,25.70
2018-04-27T13:44:35.540Z,25.60
2018-04-27T13:47:03.746Z,26.50
2018-04-27T13:49:32.108Z,26.10
2018-04-27T13:52:00.331Z,24.10
2018-04-27T13:54:29.338Z,26.20
2018-04-27T13:56:58.470Z,29.60
2018-04-27T13:59:26.675Z,29.30
2018-04-27T14:01:54.882Z,25.80
2018-04-27T14:04:23.844Z,25.80
2018-04-27T14:06:52.384Z,25.80
2018-04-27T14:09:20.587Z,28.40
2018-04-27T14:11:48.788Z,27.90
2018-04-27T14:14:17.054Z,27.50
2018-04-27T14:16:45.382Z,27.90
2018-04-27T14:19:13.620Z,27.30
2018-04-27T14:21:41.933Z,28.40
2018-04-27T14:24:10.847Z,26.90
2018-04-27T14:26:39.051Z,25.90
2018-04-27T14:29:08.560Z,28.50
2018-04-27T14:31:36.760Z,30.30
2018-04-27T14:34:05.787Z,27.40
2018-04-27T14:36:34.008Z,27.40
2018-04-27T14:39:02.375Z,26.50
2018-04-27T14:41:30.576Z,27.50
2018-04-27T14:43:59.575Z,28.70
2018-04-27T14:46:28.628Z,27.40
2018-04-27T14:48:56.911Z,27.40
2018-04-27T14:51:25.201Z,27.60
2018-04-27T14:53:53.392Z,25.70
2018-04-27T14:56:22.348Z,23.40
2018-04-27T14:58:50.561Z,23.30
2018-04-27T15:01:19.515Z,22.30
2018-04-27T15:03:47.708Z,22.30
2018-04-27T15:06:16.022Z,21.70
2018-04-27T15:08:44.998Z,21.60
2018-04-27T15:11:16.444Z,21.20
2018-04-27T15:13:45.531Z,21.10
2018-04-27T15:16:14.291Z,21.00
2018-04-27T15:18:42.491Z,20.70
2018-04-27T15:21:10.775Z,20.90
2018-04-27T15:23:39.734Z,20.70
2018-04-27T15:26:07.923Z,20.70
2018-04-27T15:28:36.469Z,20.70
2018-04-27T15:31:04.700Z,20.90
2018-04-27T15:33:32.949Z,20.60
2018-04-27T15:36:01.328Z,20.70
2018-04-27T15:38:29.507Z,20.80
2018-04-27T15:40:57.755Z,20.80
2018-04-27T15:43:25.959Z,20.90
2018-04-27T15:45:54.144Z,20.50
2018-04-27T15:48:22.355Z,20.20
2018-04-27T15:50:50.604Z,20.30
2018-04-27T15:53:19.566Z,20.40
2018-04-27T15:55:47.765Z,20.30
2018-04-27T15:58:16.412Z,20.30
2018-04-27T16:00:44.607Z,20.20
2018-04-27T16:03:12.979Z,19.80
2018-04-27T16:05:41.235Z,19.50
2018-04-27T16:08:09.423Z,19.90
2018-04-27T16:10:37.675Z,19.90
2018-04-27T16:13:09.658Z,20.10
2018-04-27T16:15:50.834Z,20.30
2018-04-27T16:18:19.081Z,20.40
2018-04-27T16:20:47.264Z,20.40
2018-04-27T16:23:15.463Z,20.50
2018-04-27T16:25:43.737Z,20.00
2018-04-27T16:28:11.929Z,19.90
2018-04-27T16:30:40.118Z,19.90
2018-04-27T16:33:08.426Z,20.00
2018-04-27T16:35:36.723Z,20.30
2018-04-27T16:38:04.915Z,20.30
2018-04-27T16:40:33.148Z,19.90
2018-04-27T16:43:02.115Z,20.00
2018-04-27T16:45:30.322Z,20.00
2018-04-27T16:47:58.715Z,20.00
2018-04-27T16:50:26.906Z,20.00
2018-04-27T16:52:55.091Z,19.90
2018-04-27T16:55:23.354Z,20.00
2018-04-27T16:57:51.547Z,19.90
2018-04-27T17:00:19.745Z,19.70
2018-04-27T17:02:48.895Z,19.50
2018-04-27T17:05:17.096Z,19.50
2018-04-27T17:07:45.275Z,19.30
2018-04-27T17:10:13.510Z,19.50
2018-04-27T17:12:45.455Z,19.50
2018-04-27T17:15:14.108Z,19.40
2018-04-27T17:17:42.299Z,19.40
2018-04-27T17:20:11.251Z,19.40
2018-04-27T17:22:39.476Z,19.40
2018-04-27T17:25:08.434Z,19.30
2018-04-27T17:27:36.647Z,19.30
2018-04-27T17:30:05.693Z,19.30
2018-04-27T17:32:33.885Z,19.30
2018-04-27T17:35:02.160Z,19.30
2018-04-27T17:37:30.407Z,19.30
2018-04-27T17:39:58.604Z,19.10
2018-04-27T17:42:26.855Z,19.00
2018-04-27T17:44:55.103Z,19.10
2018-04-27T17:47:23.292Z,19.00
2018-04-27T17:49:51.487Z,18.80
2018-04-27T17:52:20.588Z,18.70
2018-04-27T17:54:48.779Z,18.70
2018-04-27T17:57:17.227Z,18.70
2018-04-27T17:59:45.468Z,18.50
2018-04-27T18:02:16.800Z,18.40
2018-04-27T18:04:44.972Z,18.40
2018-04-27T18:07:13.425Z,18.50
2018-04-27T18:09:41.676Z,18.40
2018-04-27T18:12:09.930Z,18.30
2018-04-27T18:14:40.804Z,18.30
2018-04-27T18:17:08.999Z,18.20
2018-04-27T18:19:37.217Z,18.10
2018-04-27T18:22:06.368Z,17.90
2018-04-27T18:24:34.583Z,17.90
2018-04-27T18:27:03.578Z,17.70
2018-04-27T18:29:31.795Z,17.70
2018-04-27T18:31:59.987Z,17.70
2018-04-27T18:34:28.290Z,17.80
2018-04-27T18:39:26.325Z,17.60
2018-04-27T18:41:54.594Z,17.50
2018-04-27T18:44:22.781Z,17.40
2018-04-27T18:46:51.039Z,17.30
2018-04-27T18:49:19.268Z,17.30
2018-04-27T18:51:47.507Z,17.20
2018-04-27T18:54:15.882Z,17.20
2018-04-27T18:56:44.080Z,17.10
2018-04-27T18:59:12.295Z,16.90
2018-04-27T19:01:41.327Z,16.90
2018-04-27T19:04:09.522Z,16.90
2018-04-27T19:06:37.728Z,16.80
2018-04-27T19:09:05.947Z,16.90
2018-04-27T19:11:34.143Z,16.80
2018-04-27T19:14:02.375Z,16.70
2018-04-27T19:16:30.764Z,16.70
2018-04-27T19:19:00.147Z,16.60
2018-04-27T19:21:28.332Z,16.50
2018-04-27T19:23:57.307Z,16.50
2018-04-27T19:26:26.278Z,16.40
2018-04-27T19:28:54.475Z,16.40
2018-04-27T19:31:24.363Z,16.20
2018-04-27T19:33:53.382Z,16.20
2018-04-27T19:36:22.381Z,16.10
2018-04-27T19:38:50.595Z,16.10
2018-04-27T19:41:18.831Z,16.10
2018-04-27T19:43:47.833Z,16.00
2018-04-27T19:46:16.070Z,16.00
2018-04-27T19:48:44.416Z,16.00
2018-04-27T19:51:12.535Z,16.00
2018-04-27T19:53:40.869Z,15.90
2018-04-27T19:56:09.073Z,15.90
2018-04-27T19:58:37.260Z,15.90
2018-04-27T20:01:05.468Z,15.90
2018-04-27T20:03:34.436Z,15.80
2018-04-27T20:06:02.629Z,15.80
2018-04-27T20:08:32.366Z,15.70
2018-04-27T20:11:01.479Z,15.70
2018-04-27T20:13:29.718Z,15.70
2018-04-27T20:15:58.819Z,15.50
2018-04-27T20:18:27.995Z,15.30
2018-04-27T20:20:57.909Z,15.30
2018-04-27T20:23:26.190Z,15.20
2018-04-27T20:26:10.841Z,15.10
2018-04-27T20:28:39.039Z,15.10
2018-04-27T20:31:07.243Z,15.10
2018-04-27T20:33:35.476Z,15.10
2018-04-27T20:36:04.044Z,15.10
2018-04-27T20:38:33.404Z,15.00
2018-04-27T20:41:02.991Z,15.00
2018-04-27T20:43:31.227Z,14.90
2018-04-27T20:45:59.483Z,14.90
2018-04-27T20:48:28.479Z,14.80
2018-04-27T20:51:00.274Z,14.90
2018-04-27T20:53:30.651Z,14.80
2018-04-27T20:56:11.967Z,14.70
2018-04-27T20:58:40.192Z,14.80
2018-04-27T21:01:08.428Z,14.70
2018-04-27T21:03:36.653Z,14.70
2018-04-27T21:06:04.859Z,14.70
2018-04-27T21:08:33.050Z,14.60
2018-04-27T21:11:01.253Z,14.60
2018-04-27T21:13:29.523Z,14.60
2018-04-27T21:15:57.811Z,14.50
2018-04-27T21:18:26.056Z,14.50
2018-04-27T21:20:54.282Z,14.40
2018-04-27T21:23:23.351Z,14.30
2018-04-27T21:25:52.475Z,14.30
2018-04-27T21:28:25.704Z,14.40
2018-04-27T21:30:55.018Z,14.30
2018-04-27T21:33:34.452Z,14.20
2018-04-27T21:36:11.813Z,14.20
2018-04-27T21:38:45.808Z,14.20
2018-04-27T21:41:17.596Z,14.10
2018-04-27T21:43:46.699Z,14.10
2018-04-27T21:46:22.568Z,14.00
2018-04-27T21:48:50.739Z,14.00
2018-04-27T21:51:27.586Z,14.00
2018-04-27T21:53:57.003Z,14.00
2018-04-27T21:56:25.621Z,14.00
2018-04-27T21:58:57.746Z,14.00
2018-04-27T22:01:26.039Z,13.90
2018-04-27T22:04:08.900Z,13.80
2018-04-27T22:06:38.334Z,13.80
2018-04-27T22:09:07.363Z,13.70
2018-04-27T22:11:54.807Z,13.80
2018-04-27T22:14:32.501Z,13.80
2018-04-27T22:17:27.414Z,13.80
2018-04-27T22:19:59.162Z,13.90
2018-04-27T22:22:28.707Z,13.80
2018-04-27T22:25:08.587Z,13.70
2018-04-27T22:27:37.604Z,13.60
2018-04-27T22:30:18.543Z,13.60
2018-04-27T22:32:46.812Z,13.60
2018-04-27T22:35:15.888Z,13.60
2018-04-27T22:37:44.067Z,13.60
2018-04-27T22:40:18.091Z,13.50
2018-04-27T22:42:47.959Z,13.40
2018-04-27T22:45:18.674Z,13.40
2018-04-27T22:51:04.080Z,13.30
2018-04-27T22:53:36.836Z,13.20
2018-04-27T22:56:05.019Z,13.20
2018-04-27T22:58:33.979Z,13.20
2018-04-27T23:01:04.151Z,13.20
2018-04-27T23:03:33.132Z,13.30
2018-04-27T23:06:02.224Z,13.40
2018-04-27T23:08:32.439Z,13.30
2018-04-27T23:11:04.920Z,13.30
2018-04-27T23:13:33.130Z,13.20
2018-04-27T23:16:03.250Z,13.20
2018-04-27T23:18:35.195Z,13.20
2018-04-27T23:21:03.395Z,13.20
2018-04-27T23:23:32.815Z,13.10
2018-04-27T23:26:01.202Z,13.20
2018-04-27T23:28:29.371Z,13.20
2018-04-27T23:30:58.279Z,13.10
2018-04-27T23:33:26.491Z,13.10
2018-04-27T23:35:58.109Z,13.10
2018-04-27T23:38:28.081Z,13.00
2018-04-27T23:40:56.266Z,13.00
2018-04-27T23:43:25.244Z,13.00
2018-04-27T23:45:53.495Z,13.00
2018-04-27T23:48:21.693Z,12.90
2018-04-27T23:50:49.883Z,12.80
2018-04-27T23:53:19.839Z,12.90
2018-04-27T23:55:48.803Z,12.80
2018-04-27T23:58:17.902Z,12.80
